Time;durP1;ratioP1;P1;durP2;ratioP2;P2;SDS_P1;SDS_P2;PMS_P1;PMS_P2;Temp;Humidity;BMP_temperature;BMP_pressure;BME280_temperature;BME280_humidity;BME280_pressure;Samples;Min_cycle;Max_cycle;Signal;HPM_P1;HPM_P2
2023/07/22 00:01:19;;;;;;;3.85;2.00;;;13.80;84.70;;;;;;5032159;28;20053;-75
2023/07/22 00:03:44;;;;;;;2.65;1.80;;;13.80;84.70;;;;;;5032083;28;20049;-75
2023/07/22 00:06:11;;;;;;;3.42;1.83;;;13.70;84.90;;;;;;5035436;28;20038;-74
2023/07/22 00:08:38;;;;;;;4.10;2.40;;;13.70;84.90;;;;;;5036029;28;20060;-74
2023/07/22 00:11:07;;;;;;;5.53;2.42;;;13.70;85.00;;;;;;5019779;28;20038;-75
2023/07/22 00:13:34;;;;;;;4.28;2.10;;;13.60;85.20;;;;;;5019690;28;20037;-75
2023/07/22 00:16:00;;;;;;;3.72;2.30;;;13.60;85.50;;;;;;5036200;28;20045;-75
2023/07/22 00:18:27;;;;;;;3.03;2.03;;;13.50;86.10;;;;;;5035917;28;20052;-75
2023/07/22 00:20:54;;;;;;;5.72;2.08;;;13.40;86.10;;;;;;5035887;28;20052;-74
2023/07/22 00:23:20;;;;;;;5.72;2.58;;;13.30;86.30;;;;;;5036096;28;20037;-75
2023/07/22 00:25:46;;;;;;;6.72;2.65;;;13.20;86.70;;;;;;5036028;28;20486;-75
2023/07/22 00:28:12;;;;;;;3.35;2.28;;;13.10;87.00;;;;;;5035749;28;20057;-74
2023/07/22 00:30:38;;;;;;;3.22;2.13;;;13.10;87.30;;;;;;5035564;28;20051;-75
2023/07/22 00:33:05;;;;;;;4.35;2.20;;;13.10;86.90;;;;;;5019479;28;20037;-74
2023/07/22 00:35:31;;;;;;;4.45;2.85;;;13.00;87.10;;;;;;5035235;28;20080;-74
2023/07/22 00:37:58;;;;;;;4.47;2.50;;;13.00;87.60;;;;;;5035667;28;20110;-74
2023/07/22 00:40:24;;;;;;;4.72;2.50;;;13.00;87.60;;;;;;5035222;28;20049;-74
2023/07/22 00:42:50;;;;;;;5.85;2.80;;;13.10;87.40;;;;;;5035318;28;20061;-74
2023/07/22 00:45:15;;;;;;;5.35;3.17;;;13.10;87.20;;;;;;5035353;28;20099;-75
2023/07/22 00:47:42;;;;;;;5.93;2.83;;;13.10;87.70;;;;;;5035318;28;20128;-74
2023/07/22 00:50:08;;;;;;;5.95;3.20;;;13.00;87.90;;;;;;5035148;28;20061;-75
2023/07/22 00:52:34;;;;;;;4.43;3.20;;;13.00;87.70;;;;;;5035229;28;20098;-75
2023/07/22 00:55:01;;;;;;;4.53;2.85;;;13.00;87.70;;;;;;5035415;28;20128;-75
2023/07/22 00:57:26;;;;;;;4.70;3.55;;;13.00;87.60;;;;;;5035150;28;20045;-75
2023/07/22 00:59:52;;;;;;;4.93;2.90;;;13.00;87.80;;;;;;5018905;28;20051;-75
2023/07/22 01:02:19;;;;;;;4.93;3.00;;;13.00;88.10;;;;;;5035194;28;20045;-75
2023/07/22 01:04:45;;;;;;;7.85;2.88;;;12.90;87.80;;;;;;5035207;28;20080;-75
2023/07/22 01:07:11;;;;;;;6.75;3.40;;;12.90;87.80;;;;;;5002373;28;20076;-75
2023/07/22 01:09:38;;;;;;;6.68;3.47;;;12.90;87.90;;;;;;5035037;28;20401;-75
2023/07/22 01:12:11;;;;;;;4.38;2.97;;;12.90;87.90;;;;;;5034860;28;20045;-74
2023/07/22 01:14:39;;;;;;;4.82;3.47;;;12.90;88.10;;;;;;5035211;28;20037;-73
2023/07/22 01:17:06;;;;;;;6.95;3.28;;;12.90;88.00;;;;;;5034830;28;20080;-75
2023/07/22 01:19:33;;;;;;;4.80;2.83;;;12.90;88.10;;;;;;5035032;28;20081;-74
2023/07/22 01:22:01;;;;;;;4.65;2.83;;;12.90;88.00;;;;;;5034759;28;20049;-74
2023/07/22 01:24:28;;;;;;;6.75;2.85;;;12.80;88.40;;;;;;5018347;28;20112;-74
2023/07/22 01:26:54;;;;;;;3.88;2.67;;;12.70;88.40;;;;;;5034872;28;20045;-74
2023/07/22 01:29:21;;;;;;;4.65;2.67;;;12.70;88.20;;;;;;5034944;28;20099;-75
2023/07/22 01:31:48;;;;;;;4.60;3.15;;;12.60;88.40;;;;;;5034453;28;20041;-75
2023/07/22 01:34:13;;;;;;;3.78;2.65;;;12.60;88.20;;;;;;5034760;28;20428;-75
2023/07/22 01:36:39;;;;;;;5.10;2.90;;;12.60;88.20;;;;;;5034784;28;20040;-75
2023/07/22 01:39:08;;;;;;;4.35;2.53;;;12.60;88.10;;;;;;5017995;28;20041;-74
2023/07/22 01:41:34;;;;;;;4.63;2.75;;;12.60;88.10;;;;;;5018137;28;20071;-75
2023/07/22 01:44:00;;;;;;;4.55;2.92;;;12.60;88.10;;;;;;5034785;28;20057;-74
2023/07/22 01:46:26;;;;;;;6.22;3.08;;;12.60;88.00;;;;;;5018049;28;20053;-74
2023/07/22 01:48:51;;;;;;;5.68;2.90;;;12.60;88.30;;;;;;5017823;28;20045;-75
2023/07/22 01:51:17;;;;;;;7.88;3.13;;;12.60;88.20;;;;;;5034239;28;20053;-75
2023/07/22 01:53:43;;;;;;;6.50;3.10;;;12.60;88.20;;;;;;5034394;28;20033;-74
2023/07/22 01:56:08;;;;;;;6.00;3.13;;;12.50;88.40;;;;;;5018067;28;20071;-74
2023/07/22 01:58:34;;;;;;;5.80;2.72;;;12.60;88.30;;;;;;5034491;28;20091;-75
2023/07/22 02:01:00;;;;;;;6.38;3.00;;;12.60;88.10;;;;;;5041426;28;20032;-75
2023/07/22 02:03:26;;;;;;;6.78;3.33;;;12.60;88.20;;;;;;5027701;28;20075;-75
2023/07/22 02:05:52;;;;;;;8.05;3.45;;;12.60;88.30;;;;;;5042838;28;20131;-74
2023/07/22 02:08:17;;;;;;;7.05;3.40;;;12.60;88.20;;;;;;5045228;28;20120;-74
2023/07/22 02:10:43;;;;;;;4.90;3.10;;;12.60;88.30;;;;;;5024238;28;20091;-74
2023/07/22 02:13:09;;;;;;;5.10;3.22;;;12.60;88.40;;;;;;5044541;28;20087;-74
2023/07/22 02:15:36;;;;;;;4.70;3.28;;;12.60;88.20;;;;;;5042576;28;20069;-75
2023/07/22 02:18:01;;;;;;;6.95;3.40;;;12.60;88.30;;;;;;5043806;28;20406;-74
2023/07/22 02:20:28;;;;;;;6.43;3.70;;;12.60;88.70;;;;;;5043978;28;20098;-74
2023/07/22 02:22:55;;;;;;;5.63;3.72;;;12.60;88.70;;;;;;5038608;28;20093;-74
2023/07/22 02:25:20;;;;;;;7.80;3.47;;;12.50;88.80;;;;;;5048717;28;20045;-75
2023/07/22 02:27:46;;;;;;;7.82;4.25;;;12.60;88.60;;;;;;5036074;28;20052;-75
2023/07/22 02:30:12;;;;;;;6.65;3.78;;;12.50;88.90;;;;;;5053264;28;20385;-74
2023/07/22 02:32:39;;;;;;;7.00;3.40;;;12.50;88.90;;;;;;5053192;28;20208;-75
2023/07/22 02:35:06;;;;;;;5.90;2.70;;;12.50;89.20;;;;;;5053315;28;20043;-74
2023/07/22 02:37:33;;;;;;;5.40;3.30;;;12.50;89.40;;;;;;5053045;28;20041;-73
2023/07/22 02:39:59;;;;;;;7.90;3.90;;;12.50;89.20;;;;;;5053462;28;20184;-74
2023/07/22 02:42:24;;;;;;;5.50;3.42;;;12.50;89.00;;;;;;5019911;28;20148;-75
2023/07/22 02:44:50;;;;;;;5.72;3.80;;;12.50;89.30;;;;;;5053344;28;20128;-74
2023/07/22 02:47:16;;;;;;;11.75;3.53;;;12.50;89.70;;;;;;5036676;28;20401;-74
2023/07/22 02:49:41;;;;;;;5.18;4.05;;;12.40;89.70;;;;;;5052841;28;20094;-74
2023/07/22 02:52:07;;;;;;;5.63;3.60;;;12.40;89.40;;;;;;5036158;28;20052;-74
2023/07/22 02:54:40;;;;;;;6.80;3.90;;;12.40;89.60;;;;;;5019618;28;20051;-74
2023/07/22 02:57:06;;;;;;;6.97;4.13;;;12.50;89.60;;;;;;5053093;28;20508;-74
2023/07/22 02:59:33;;;;;;;7.18;3.90;;;12.40;89.50;;;;;;5052829;28;20045;-74
2023/07/22 03:01:59;;;;;;;5.50;3.38;;;12.50;89.00;;;;;;5052723;28;20056;-74
2023/07/22 03:04:24;;;;;;;7.47;3.78;;;12.50;89.10;;;;;;5052879;28;20045;-74
2023/07/22 03:06:50;;;;;;;5.47;3.58;;;12.50;89.10;;;;;;5052734;28;20045;-75
2023/07/22 03:09:16;;;;;;;6.93;3.95;;;12.60;89.00;;;;;;5052727;28;20041;-74
2023/07/22 03:11:41;;;;;;;7.47;3.88;;;12.60;89.30;;;;;;5052558;28;20255;-74
2023/07/22 03:14:07;;;;;;;8.07;4.90;;;12.60;88.90;;;;;;5052576;28;20033;-75
2023/07/22 03:16:33;;;;;;;7.28;4.50;;;12.70;89.00;;;;;;5052817;28;20056;-75
2023/07/22 03:18:58;;;;;;;8.30;4.85;;;12.70;89.50;;;;;;5052575;28;20481;-75
2023/07/22 03:21:24;;;;;;;7.35;4.57;;;12.60;89.60;;;;;;5052561;28;20056;-75
2023/07/22 03:23:50;;;;;;;8.32;5.00;;;12.70;89.40;;;;;;5036119;28;20033;-74
2023/07/22 03:26:16;;;;;;;8.63;4.75;;;12.70;89.30;;;;;;5052408;28;20044;-75
2023/07/22 03:28:42;;;;;;;6.72;4.25;;;12.70;89.60;;;;;;5035202;28;20095;-74
2023/07/22 03:31:10;;;;;;;9.80;4.15;;;12.70;89.60;;;;;;5051641;28;20492;-75
2023/07/22 03:33:36;;;;;;;7.35;4.82;;;12.70;89.70;;;;;;5051619;28;20044;-74
2023/07/22 03:36:02;;;;;;;7.75;4.05;;;12.70;89.40;;;;;;5050460;28;20095;-74
2023/07/22 03:38:27;;;;;;;9.43;5.00;;;12.80;89.20;;;;;;5033213;28;20041;-74
2023/07/22 03:40:53;;;;;;;8.90;4.65;;;12.80;89.00;;;;;;5051049;28;20144;-74
2023/07/22 03:43:19;;;;;;;10.40;4.72;;;12.80;89.00;;;;;;5051242;28;20102;-74
2023/07/22 03:45:44;;;;;;;5.63;4.15;;;12.80;88.90;;;;;;5051314;28;20056;-74
2023/07/22 03:48:10;;;;;;;8.70;4.57;;;12.90;89.00;;;;;;5051837;28;20037;-76
2023/07/22 03:50:36;;;;;;;6.95;4.32;;;12.90;89.00;;;;;;5051343;28;20473;-74
2023/07/22 03:53:02;;;;;;;7.30;4.63;;;12.90;89.20;;;;;;5051932;28;20045;-75
2023/07/22 03:55:28;;;;;;;8.77;4.63;;;13.00;89.40;;;;;;5051582;28;20587;-74
2023/07/22 03:57:54;;;;;;;7.50;4.43;;;12.90;89.50;;;;;;5051455;28;20068;-75
2023/07/22 04:00:21;;;;;;;8.50;5.00;;;13.00;89.70;;;;;;5051887;28;20045;-76
2023/07/22 04:02:46;;;;;;;9.93;5.28;;;13.00;89.80;;;;;;5051533;28;20045;-74
2023/07/22 04:05:12;;;;;;;7.53;5.05;;;13.00;89.90;;;;;;5051554;28;20048;-75
2023/07/22 04:07:38;;;;;;;8.65;5.80;;;13.00;90.20;;;;;;5051744;28;20058;-74
2023/07/22 04:10:05;;;;;;;10.52;6.53;;;13.00;89.90;;;;;;5051612;28;20048;-74
2023/07/22 04:12:31;;;;;;;11.73;6.40;;;13.10;89.60;;;;;;5051318;28;20049;-74
2023/07/22 04:14:57;;;;;;;12.88;6.82;;;13.10;90.50;;;;;;5051390;28;20084;-74
2023/07/22 04:17:22;;;;;;;14.02;7.78;;;13.20;91.60;;;;;;5051609;28;20040;-74
2023/07/22 04:19:51;;;;;;;12.68;8.40;;;13.20;91.60;;;;;;5051374;28;20405;-75
2023/07/22 04:22:17;;;;;;;12.30;8.18;;;13.20;92.20;;;;;;5051358;28;20055;-75
2023/07/22 04:24:43;;;;;;;14.98;8.00;;;13.30;92.00;;;;;;5018150;28;20040;-75
2023/07/22 04:27:08;;;;;;;14.95;7.95;;;13.30;92.20;;;;;;5051344;28;20041;-73
2023/07/22 04:29:35;;;;;;;13.73;7.65;;;13.30;92.90;;;;;;5034979;28;20033;-74
2023/07/22 04:32:01;;;;;;;13.95;7.88;;;13.30;92.20;;;;;;5034677;28;20088;-75
2023/07/22 04:34:31;;;;;;;14.02;8.75;;;13.40;91.90;;;;;;5051389;28;20447;-74
2023/07/22 04:36:57;;;;;;;16.67;9.07;;;13.50;92.10;;;;;;5034738;28;20481;-75
2023/07/22 04:39:23;;;;;;;16.45;8.65;;;13.50;92.00;;;;;;5051391;28;20094;-74
2023/07/22 04:41:49;;;;;;;14.93;9.50;;;13.50;91.60;;;;;;5051186;28;20143;-74
2023/07/22 04:44:14;;;;;;;17.50;10.23;;;13.50;92.70;;;;;;5034840;28;20175;-74
2023/07/22 04:46:40;;;;;;;15.20;9.43;;;13.60;92.50;;;;;;5034845;28;20132;-74
2023/07/22 04:49:06;;;;;;;16.60;8.55;;;13.60;92.40;;;;;;5051274;28;20489;-75
2023/07/22 04:51:32;;;;;;;17.48;8.90;;;13.70;92.40;;;;;;5053189;28;20134;-75
2023/07/22 04:53:57;;;;;;;17.52;9.70;;;13.80;92.70;;;;;;5038111;28;20037;-74
2023/07/22 04:56:23;;;;;;;11.02;7.85;;;13.80;93.20;;;;;;5054731;28;20048;-75
2023/07/22 04:58:49;;;;;;;17.23;9.98;;;13.80;92.60;;;;;;5038416;28;20056;-75
2023/07/22 05:01:15;;;;;;;15.88;9.88;;;13.90;92.40;;;;;;5038286;28;20582;-75
2023/07/22 05:03:41;;;;;;;16.02;9.57;;;14.00;92.70;;;;;;5038041;28;20128;-76
2023/07/22 05:06:08;;;;;;;17.52;9.60;;;14.00;93.20;;;;;;5054889;28;20136;-75
2023/07/22 05:08:34;;;;;;;17.42;10.18;;;14.00;92.50;;;;;;5054851;28;20048;-76
2023/07/22 05:11:00;;;;;;;18.50;10.07;;;14.00;93.00;;;;;;5038037;28;20067;-75
2023/07/22 05:13:26;;;;;;;17.25;10.48;;;14.10;93.10;;;;;;5054802;28;20033;-76
2023/07/22 05:15:51;;;;;;;17.48;9.57;;;14.10;92.70;;;;;;5037807;28;20532;-75
2023/07/22 05:18:17;;;;;;;15.32;9.82;;;14.20;92.50;;;;;;5030141;28;20033;-76
2023/07/22 05:20:43;;;;;;;15.35;10.35;;;14.20;92.40;;;;;;5025979;28;20079;-75
2023/07/22 05:23:08;;;;;;;15.20;10.05;;;14.30;92.40;;;;;;5043004;28;20055;-76
2023/07/22 05:25:34;;;;;;;15.73;9.65;;;14.30;92.50;;;;;;5025616;28;20397;-75
2023/07/22 05:28:00;;;;;;;16.30;10.30;;;14.40;92.40;;;;;;5025658;28;20033;-75
2023/07/22 05:30:25;;;;;;;13.05;9.00;;;14.40;92.40;;;;;;5025904;28;20037;-75
2023/07/22 05:32:54;;;;;;;13.43;9.85;;;14.50;92.20;;;;;;5044389;28;20120;-76
2023/07/22 05:35:20;;;;;;;14.43;10.07;;;14.50;92.10;;;;;;5026286;28;20048;-75
2023/07/22 05:37:46;;;;;;;16.55;9.35;;;14.50;92.00;;;;;;5043474;28;20405;-75
2023/07/22 05:40:11;;;;;;;15.80;8.80;;;14.50;92.00;;;;;;5015115;28;20037;-75
2023/07/22 05:42:37;;;;;;;11.63;7.30;;;14.60;92.00;;;;;;5053948;28;20446;-74
2023/07/22 05:45:03;;;;;;;13.18;8.70;;;14.60;91.80;;;;;;5053674;28;20390;-74
2023/07/22 05:47:29;;;;;;;11.90;7.90;;;14.60;91.30;;;;;;5053892;28;20052;-75
2023/07/22 05:49:55;;;;;;;10.48;7.25;;;14.70;91.30;;;;;;5053757;28;20044;-74
2023/07/22 05:52:20;;;;;;;11.43;8.23;;;14.80;91.20;;;;;;5020667;28;20041;-77
2023/07/22 05:54:46;;;;;;;13.55;9.15;;;14.70;91.00;;;;;;5053696;28;20041;-74
2023/07/22 05:57:12;;;;;;;12.35;8.38;;;14.70;90.70;;;;;;5037310;28;20116;-75
2023/07/22 05:59:39;;;;;;;14.68;9.68;;;14.80;90.80;;;;;;5053584;28;20040;-73
2023/07/22 06:02:05;;;;;;;16.58;10.60;;;14.80;91.00;;;;;;5036293;28;20576;-72
2023/07/22 06:04:31;;;;;;;16.23;10.63;;;14.90;90.90;;;;;;5053575;28;20044;-75
2023/07/22 06:06:57;;;;;;;18.13;11.23;;;14.90;91.00;;;;;;5053474;28;20401;-76
2023/07/22 06:09:23;;;;;;;15.18;10.48;;;15.00;90.90;;;;;;5053280;28;20049;-75
2023/07/22 06:11:49;;;;;;;15.68;10.48;;;15.10;90.90;;;;;;5053274;28;20076;-75
2023/07/22 06:14:14;;;;;;;17.88;12.18;;;15.10;90.60;;;;;;5053171;28;20060;-75
2023/07/22 06:16:40;;;;;;;18.00;11.18;;;15.20;90.60;;;;;;5019267;28;20068;-75
2023/07/22 06:19:06;;;;;;;19.00;10.48;;;15.30;90.50;;;;;;5036666;28;20059;-75
2023/07/22 06:21:31;;;;;;;16.20;10.82;;;15.40;90.40;;;;;;5036565;28;20121;-75
2023/07/22 06:23:57;;;;;;;19.23;11.23;;;15.50;89.60;;;;;;5036515;28;20087;-77
2023/07/22 06:26:23;;;;;;;15.65;10.52;;;15.50;89.70;;;;;;5020313;28;20083;-77
2023/07/22 06:28:48;;;;;;;15.55;10.90;;;15.60;89.20;;;;;;5036025;28;20378;-77
2023/07/22 06:31:14;;;;;;;18.17;11.27;;;15.50;88.50;;;;;;5053007;28;20064;-76
2023/07/22 06:33:40;;;;;;;17.63;11.30;;;15.50;88.30;;;;;;5036731;28;20079;-77
2023/07/22 06:36:05;;;;;;;19.55;12.15;;;15.50;88.50;;;;;;5052901;28;20488;-76
2023/07/22 06:38:31;;;;;;;15.75;10.75;;;15.50;88.60;;;;;;5052900;28;20099;-77
2023/07/22 06:40:57;;;;;;;15.32;11.18;;;15.60;88.90;;;;;;5053090;28;20048;-76
2023/07/22 06:43:23;;;;;;;15.85;11.07;;;15.60;89.00;;;;;;5052566;28;20057;-76
2023/07/22 06:45:48;;;;;;;16.92;11.30;;;15.70;89.20;;;;;;5036122;28;20053;-77
2023/07/22 06:48:14;;;;;;;19.55;12.98;;;15.70;89.10;;;;;;5052804;28;20045;-76
2023/07/22 06:50:40;;;;;;;20.25;12.40;;;15.80;89.50;;;;;;5052622;28;20052;-77
2023/07/22 06:53:05;;;;;;;16.48;11.65;;;15.80;89.70;;;;;;5052551;28;20041;-77
2023/07/22 06:55:31;;;;;;;18.38;11.73;;;15.90;89.80;;;;;;5052751;28;20056;-77
2023/07/22 06:57:57;;;;;;;20.52;12.90;;;15.90;90.00;;;;;;5035960;28;20045;-77
2023/07/22 07:00:23;;;;;;;17.77;12.07;;;16.00;90.20;;;;;;5035897;28;20036;-76
2023/07/22 07:02:51;;;;;;;18.75;12.80;;;16.00;89.70;;;;;;5052741;28;20033;-76
2023/07/22 07:05:17;;;;;;;17.15;11.35;;;16.10;89.60;;;;;;5052357;28;20037;-76
2023/07/22 07:07:43;;;;;;;16.20;12.10;;;16.20;89.60;;;;;;5035978;28;20041;-77
2023/07/22 07:10:09;;;;;;;16.77;11.48;;;16.20;89.80;;;;;;5035847;28;20047;-76
2023/07/22 07:12:34;;;;;;;15.40;10.98;;;16.30;89.30;;;;;;5035746;28;20052;-78
2023/07/22 07:15:00;;;;;;;15.48;9.95;;;16.30;89.60;;;;;;5052275;28;20049;-76
2023/07/22 07:17:27;;;;;;;15.30;10.68;;;16.30;89.30;;;;;;5052168;28;20045;-77
2023/07/22 07:19:52;;;;;;;13.25;9.75;;;16.40;88.90;;;;;;5052156;28;20180;-76
2023/07/22 07:22:18;;;;;;;15.18;10.73;;;16.40;88.50;;;;;;5056102;28;20179;-76
2023/07/22 07:24:44;;;;;;;14.98;10.82;;;16.40;88.30;;;;;;5052110;28;20045;-76
2023/07/22 07:27:09;;;;;;;17.05;10.10;;;16.50;88.30;;;;;;5052588;28;20095;-75
2023/07/22 07:29:35;;;;;;;15.60;10.38;;;16.50;88.00;;;;;;5052450;28;20405;-74
2023/07/22 07:32:01;;;;;;;16.90;9.75;;;16.50;88.10;;;;;;5058288;28;20037;-74
2023/07/22 07:34:27;;;;;;;14.13;10.52;;;16.60;87.90;;;;;;5069630;28;20059;-75
2023/07/22 07:36:52;;;;;;;14.18;8.88;;;16.70;88.20;;;;;;5055972;28;20048;-75
2023/07/22 07:39:18;;;;;;;12.05;9.05;;;16.70;88.20;;;;;;5052405;28;20041;-77
2023/07/22 07:41:44;;;;;;;13.85;9.27;;;16.80;87.80;;;;;;5052843;28;20041;-77
2023/07/22 07:44:09;;;;;;;13.63;9.68;;;16.90;87.70;;;;;;5036280;28;20508;-76
2023/07/22 07:46:35;;;;;;;15.18;9.98;;;17.00;87.40;;;;;;5052951;28;20063;-76
2023/07/22 07:49:02;;;;;;;14.95;8.65;;;17.10;87.80;;;;;;5052674;28;20056;-76
2023/07/22 07:51:30;;;;;;;11.60;8.43;;;17.20;87.30;;;;;;5052298;28;20049;-75
2023/07/22 07:53:56;;;;;;;12.38;6.45;;;17.20;85.90;;;;;;5052659;28;20453;-77
2023/07/22 07:56:22;;;;;;;10.05;8.43;;;17.40;86.00;;;;;;5053237;28;20044;-75
2023/07/22 07:58:49;;;;;;;11.63;8.30;;;17.40;85.30;;;;;;5052509;28;20049;-76
2023/07/22 08:01:15;;;;;;;11.70;8.65;;;17.50;84.70;;;;;;5036586;28;20485;-76
2023/07/22 08:03:42;;;;;;;11.77;8.82;;;17.50;84.30;;;;;;5038153;28;20071;-76
2023/07/22 08:06:09;;;;;;;9.75;7.28;;;17.60;84.90;;;;;;5029122;28;20044;-75
2023/07/22 08:08:35;;;;;;;9.27;5.97;;;17.60;84.10;;;;;;5066290;28;20155;-75
2023/07/22 08:11:03;;;;;;;10.20;6.38;;;17.60;83.40;;;;;;5067721;28;20045;-76
2023/07/22 08:13:33;;;;;;;8.95;6.60;;;17.60;82.40;;;;;;5068692;28;20063;-75
2023/07/22 08:16:03;;;;;;;9.68;6.72;;;17.60;82.40;;;;;;5068886;28;20068;-73
2023/07/22 08:18:30;;;;;;;9.68;6.07;;;17.60;82.50;;;;;;5032671;28;20029;-75
2023/07/22 08:20:56;;;;;;;7.85;5.28;;;17.60;82.50;;;;;;5043830;28;20041;-76
2023/07/22 08:23:22;;;;;;;7.40;3.80;;;17.70;82.00;;;;;;5066559;28;20044;-76
2023/07/22 08:25:48;;;;;;;5.57;4.22;;;17.80;79.80;;;;;;5069550;28;20143;-76
2023/07/22 08:28:14;;;;;;;6.72;5.00;;;17.80;79.30;;;;;;5072881;28;20109;-76
2023/07/22 08:30:40;;;;;;;5.72;4.53;;;17.90;77.40;;;;;;5074975;28;20101;-75
2023/07/22 08:33:09;;;;;;;7.00;4.60;;;17.90;77.80;;;;;;5074041;28;20042;-76
2023/07/22 08:35:36;;;;;;;7.35;4.78;;;18.00;78.20;;;;;;5072519;28;20033;-76
2023/07/22 08:38:02;;;;;;;7.70;4.80;;;18.00;78.00;;;;;;5072850;28;20037;-75
2023/07/22 08:40:34;;;;;;;5.47;4.47;;;18.00;77.80;;;;;;5072963;28;20102;-76
2023/07/22 08:43:01;;;;;;;6.78;5.03;;;18.00;77.70;;;;;;5071499;28;20071;-74
2023/07/22 08:45:32;;;;;;;6.05;4.75;;;18.20;77.30;;;;;;5054926;28;20072;-75
2023/07/22 08:47:59;;;;;;;4.82;3.17;;;18.10;76.60;;;;;;5071919;28;20041;-75
2023/07/22 08:50:29;;;;;;;6.07;3.65;;;18.10;76.10;;;;;;5072609;28;20461;-76
2023/07/22 08:52:56;;;;;;;5.32;3.65;;;18.10;76.50;;;;;;5070507;28;20041;-75
2023/07/22 08:55:23;;;;;;;15.68;9.98;;;18.00;76.00;;;;;;5048656;28;20097;-76
2023/07/22 08:57:50;;;;;;;17.02;11.73;;;17.80;79.80;;;;;;5067436;28;20049;-75
2023/07/22 09:00:17;;;;;;;20.77;13.98;;;17.60;82.70;;;;;;5071563;28;20051;-75
2023/07/22 09:02:43;;;;;;;25.23;16.40;;;17.50;82.30;;;;;;5071049;28;20044;-75
2023/07/22 09:05:09;;;;;;;25.05;16.80;;;17.30;84.90;;;;;;5070572;28;20041;-75
2023/07/22 09:07:37;;;;;;;24.85;15.95;;;17.20;86.60;;;;;;5070653;28;20041;-75
2023/07/22 09:10:05;;;;;;;25.42;17.00;;;17.20;85.80;;;;;;5071315;28;20033;-75
2023/07/22 09:12:32;;;;;;;23.90;17.65;;;17.10;87.60;;;;;;5070842;28;20127;-75
2023/07/22 09:14:58;;;;;;;22.85;15.88;;;17.10;87.70;;;;;;5070280;28;20040;-75
2023/07/22 09:17:24;;;;;;;19.80;14.73;;;17.10;89.50;;;;;;5052862;28;20124;-75
2023/07/22 09:19:56;;;;;;;18.13;12.82;;;17.00;89.70;;;;;;5073210;28;20025;-75
2023/07/22 09:22:26;;;;;;;20.40;13.82;;;17.00;89.60;;;;;;5064088;28;20060;-75
2023/07/22 09:24:52;;;;;;;21.50;14.57;;;16.90;90.70;;;;;;5061383;28;20041;-77
2023/07/22 09:27:34;;;;;;;19.27;12.95;;;16.90;91.10;;;;;;5045904;28;20121;-74
2023/07/22 09:29:59;;;;;;;13.57;9.40;;;17.00;90.70;;;;;;5058709;28;20044;-77
2023/07/22 09:32:36;;;;;;;11.90;8.35;;;16.80;90.00;;;;;;5060318;28;20045;-76
2023/07/22 09:35:02;;;;;;;14.68;10.27;;;16.70;90.00;;;;;;5063881;28;20040;-77
2023/07/22 09:37:37;;;;;;;11.88;9.82;;;16.70;89.70;;;;;;5060645;28;20047;-76
2023/07/22 09:40:23;;;;;;;14.02;10.18;;;16.80;89.90;;;;;;5058111;28;20099;-76
2023/07/22 09:42:51;;;;;;;14.45;11.38;;;16.80;90.50;;;;;;5062306;28;20101;-76
2023/07/22 09:45:19;;;;;;;14.63;9.60;;;16.70;90.70;;;;;;5060349;28;20119;-76
2023/07/22 09:47:49;;;;;;;12.32;9.18;;;16.70;90.40;;;;;;5054694;28;20516;-75
2023/07/22 09:50:22;;;;;;;11.07;8.52;;;16.70;90.40;;;;;;5057737;28;20045;-74
2023/07/22 09:52:50;;;;;;;10.40;7.43;;;16.70;90.30;;;;;;5055443;28;20524;-75
2023/07/22 09:55:18;;;;;;;9.63;5.68;;;16.80;89.40;;;;;;5056134;28;20045;-74
2023/07/22 09:57:46;;;;;;;6.13;4.30;;;16.70;88.60;;;;;;5059128;28;20041;-75
2023/07/22 10:00:14;;;;;;;5.97;4.88;;;16.90;88.30;;;;;;5058288;28;20045;-75
2023/07/22 10:02:45;;;;;;;7.57;4.75;;;16.80;86.20;;;;;;5056085;28;20044;-76
2023/07/22 10:05:14;;;;;;;6.72;5.22;;;16.80;86.90;;;;;;5040801;28;20049;-75
2023/07/22 10:07:47;;;;;;;5.93;4.40;;;16.90;87.00;;;;;;5057405;28;20049;-74
2023/07/22 10:10:16;;;;;;;9.10;5.72;;;16.80;86.30;;;;;;5057598;28;20044;-76
2023/07/22 10:12:42;;;;;;;10.32;6.63;;;16.70;86.20;;;;;;5058312;28;20056;-75
2023/07/22 10:15:10;;;;;;;7.95;5.43;;;16.80;86.20;;;;;;5054405;28;20385;-75
2023/07/22 10:17:36;;;;;;;7.15;6.05;;;16.80;86.50;;;;;;5056543;28;20041;-75
2023/07/22 10:20:06;;;;;;;6.93;5.60;;;16.70;87.20;;;;;;5054042;28;20045;-75
2023/07/22 10:22:37;;;;;;;10.05;8.10;;;16.60;87.90;;;;;;5039832;28;20045;-75
2023/07/22 10:25:06;;;;;;;16.67;10.30;;;16.50;88.90;;;;;;5056032;28;20061;-74
2023/07/22 10:27:32;;;;;;;11.63;8.95;;;16.50;88.90;;;;;;5061226;28;20489;-75
2023/07/22 10:29:59;;;;;;;7.88;5.60;;;16.50;89.40;;;;;;5041938;28;20384;-75
2023/07/22 10:32:24;;;;;;;6.45;5.60;;;16.50;88.80;;;;;;5053719;28;20048;-75
2023/07/22 10:34:50;;;;;;;8.35;5.60;;;16.50;88.80;;;;;;5055014;28;20037;-76
2023/07/22 10:37:18;;;;;;;8.60;6.75;;;16.40;88.70;;;;;;5040318;28;20044;-75
2023/07/22 10:39:44;;;;;;;8.93;6.10;;;16.40;89.10;;;;;;5056672;28;20076;-75
2023/07/22 10:42:24;;;;;;;7.30;5.45;;;16.40;89.60;;;;;;5064012;28;20068;-76
2023/07/22 10:44:50;;;;;;;7.88;5.72;;;16.50;88.80;;;;;;5059911;28;20048;-76
2023/07/22 10:47:32;;;;;;;6.68;6.03;;;16.50;88.90;;;;;;5056125;28;20127;-75
2023/07/22 10:50:09;;;;;;;7.60;5.18;;;16.50;88.70;;;;;;5052257;28;20497;-76
2023/07/22 10:52:46;;;;;;;6.28;5.15;;;16.50;88.90;;;;;;5052631;28;20044;-76
2023/07/22 10:55:17;;;;;;;7.40;5.75;;;16.40;89.10;;;;;;5035900;28;20048;-75
2023/07/22 10:57:51;;;;;;;6.75;5.60;;;16.40;88.90;;;;;;5052572;28;20041;-76
2023/07/22 11:00:21;;;;;;;7.85;5.80;;;16.30;89.30;;;;;;5052704;28;20045;-76
2023/07/22 11:03:08;;;;;;;7.85;6.30;;;16.30;89.60;;;;;;5052383;28;20485;-76
2023/07/22 11:05:55;;;;;;;8.00;6.50;;;16.40;90.00;;;;;;5052273;28;20044;-75
2023/07/22 11:08:41;;;;;;;9.63;8.00;;;16.30;90.10;;;;;;5052384;28;20090;-77
2023/07/22 11:11:07;;;;;;;9.65;7.05;;;16.20;90.30;;;;;;5052315;28;20053;-75
2023/07/22 11:13:42;;;;;;;7.28;6.22;;;16.20;90.00;;;;;;5052549;28;20094;-77
2023/07/22 11:16:12;;;;;;;8.07;6.53;;;16.20;90.10;;;;;;5035657;28;20036;-75
2023/07/22 11:18:41;;;;;;;10.40;7.20;;;16.20;90.10;;;;;;5052219;28;20552;-76
2023/07/22 11:21:12;;;;;;;10.65;7.00;;;16.20;90.00;;;;;;5052341;28;20049;-77
2023/07/22 11:23:37;;;;;;;9.25;7.63;;;16.20;89.90;;;;;;5052439;28;20087;-77
2023/07/22 11:26:04;;;;;;;10.10;5.93;;;16.20;89.90;;;;;;5035431;28;20463;-78
2023/07/22 11:28:31;;;;;;;8.18;6.53;;;16.20;90.00;;;;;;5052540;28;20048;-77
2023/07/22 11:30:58;;;;;;;4.03;2.38;;;16.10;90.40;;;;;;5051887;28;20044;-75
2023/07/22 11:33:24;;;;;;;4.35;3.35;;;16.20;89.60;;;;;;5035727;28;20373;-76
2023/07/22 11:35:50;;;;;;;6.78;4.15;;;16.20;88.80;;;;;;5055179;28;20052;-76
2023/07/22 11:38:16;;;;;;;6.40;4.90;;;16.10;89.00;;;;;;5055542;28;20385;-76
2023/07/22 11:40:41;;;;;;;6.53;5.80;;;16.10;89.30;;;;;;5056264;28;20056;-75
2023/07/22 11:43:07;;;;;;;6.50;4.60;;;16.10;89.40;;;;;;5051065;28;20053;-75
2023/07/22 11:45:33;;;;;;;8.35;5.70;;;16.10;89.60;;;;;;5018184;28;20084;-76
2023/07/22 11:47:59;;;;;;;6.28;5.68;;;16.10;89.30;;;;;;5017979;28;20063;-76
2023/07/22 11:50:34;;;;;;;17.33;15.52;;;16.20;89.70;;;;;;5050807;28;20044;-77
2023/07/22 11:53:00;;;;;;;26.60;21.90;;;16.20;89.50;;;;;;5034583;28;20072;-77
2023/07/22 11:55:26;;;;;;;10.65;8.88;;;16.20;89.50;;;;;;5050707;28;20397;-77
2023/07/22 11:57:55;;;;;;;7.95;5.80;;;16.30;89.50;;;;;;5034545;28;20086;-77
2023/07/22 12:00:21;;;;;;;6.65;5.03;;;16.40;89.70;;;;;;5049786;28;20430;-77
2023/07/22 12:02:47;;;;;;;5.78;5.15;;;16.50;89.80;;;;;;5050991;28;20397;-77
2023/07/22 12:05:21;;;;;;;12.77;10.43;;;16.50;89.80;;;;;;5050785;28;20048;-77
2023/07/22 12:07:47;;;;;;;;;;;16.70;89.80;;;;;;5051458;28;20034;-76
2023/07/22 12:10:13;;;;;;;6.40;4.78;;;16.90;89.90;;;;;;5050690;28;19938;-77
2023/07/22 12:12:41;;;;;;;6.97;4.45;;;17.00;89.70;;;;;;5050955;28;20037;-77
2023/07/22 12:15:19;;;;;;;7.15;5.05;;;17.20;89.30;;;;;;5050549;28;20049;-77
2023/07/22 12:17:50;;;;;;;6.28;5.18;;;17.30;89.10;;;;;;5050589;28;20069;-75
2023/07/22 12:20:16;;;;;;;9.27;6.38;;;17.50;88.80;;;;;;5050602;28;20094;-76
2023/07/22 12:22:43;;;;;;;6.97;5.82;;;17.70;88.80;;;;;;5034486;28;20128;-77
2023/07/22 12:25:09;;;;;;;8.25;7.13;;;17.90;88.90;;;;;;5050817;28;20051;-76
2023/07/22 12:27:35;;;;;;;8.60;6.90;;;18.00;87.20;;;;;;5053242;28;20514;-76
2023/07/22 12:30:02;;;;;;;11.55;6.85;;;18.00;87.80;;;;;;5051113;28;20130;-77
2023/07/22 12:32:28;;;;;;;9.02;7.05;;;18.20;88.00;;;;;;5034097;28;20052;-77
2023/07/22 12:34:54;;;;;;;12.85;7.88;;;18.30;88.20;;;;;;5050453;28;20037;-77
2023/07/22 12:37:19;;;;;;;9.60;8.55;;;18.20;87.80;;;;;;5050812;28;20041;-77
2023/07/22 12:39:45;;;;;;;10.63;7.72;;;18.20;87.60;;;;;;5050404;28;20500;-77